Time;durP1;ratioP1;P1;durP2;ratioP2;P2;SDS_P1;SDS_P2;PMS_P1;PMS_P2;Temp;Humidity;BMP_temperature;BMP_pressure;BME280_temperature;BME280_humidity;BME280_pressure;Samples;Min_cycle;Max_cycle;Signal;HPM_P1;HPM_P2
2023/03/02 00:00:12;;;;;;;;;;;4.30;47.30;;;2.68;50.70;102288.59;12260030;19;19943;-83
2023/03/02 00:04:19;;;;;;;;;;;4.30;47.40;;;2.60;50.85;102276.53;12257834;19;19919;-82
2023/03/02 00:08:21;;;;;;;;;;;4.30;47.40;;;2.57;50.87;102273.97;12255985;19;20359;-83
2023/03/02 00:12:25;;;;;;;;;;;4.20;47.40;;;2.58;50.87;102291.13;12257979;19;19919;-82
2023/03/02 00:16:27;;;;;;;;;;;4.20;47.40;;;2.53;50.97;102282.53;12254385;19;19915;-82
2023/03/02 00:20:28;;;;;;;;;;;4.20;47.40;;;2.53;50.86;102273.94;12257235;19;19914;-83
2023/03/02 00:24:30;;;;;;;;;;;4.40;47.50;;;2.58;50.72;102290.28;12257603;19;20264;-82
2023/03/02 00:28:32;;;;;;;;;;;4.20;47.40;;;2.57;50.88;102288.56;12255853;19;19925;-82
2023/03/02 00:32:34;;;;;;;;;;;4.20;47.40;;;2.51;50.72;102281.69;12255743;19;19933;-82
2023/03/02 00:36:36;;;;;;;;;;;4.30;47.50;;;2.46;51.10;102267.03;12252947;19;19915;-82
2023/03/02 00:40:43;;;;;;;;;;;4.40;47.50;;;2.39;50.92;102253.28;12252100;19;19926;-82
2023/03/02 00:44:44;;;;;;;;;;;4.10;47.40;;;2.45;50.85;102273.91;12252517;19;20342;-82
2023/03/02 00:48:47;;;;;;;;;;;4.40;47.60;;;2.32;50.98;102248.94;12250909;19;19911;-83
2023/03/02 00:52:48;;;;;;;;;;;4.00;47.40;;;2.34;50.87;102266.13;12252603;19;20234;-82
2023/03/02 00:56:49;;;;;;;;;;;4.00;47.80;;;2.22;50.88;102258.38;12252942;19;19929;-82
2023/03/02 01:00:52;;;;;;;;;;;4.20;47.50;;;2.26;50.94;102266.97;12267210;19;19911;-82
2023/03/02 01:04:54;;;;;;;;;;;4.20;47.50;;;2.23;50.78;102270.38;12265723;19;19939;-82
2023/03/02 01:08:55;;;;;;;;;;;3.90;47.40;;;1.93;50.95;102222.16;12261144;19;19903;-82
2023/03/02 01:12:57;;;;;;;;;;;3.80;47.40;;;2.16;50.84;102254.06;12263396;19;19919;-83
2023/03/02 01:16:59;;;;;;;;;;;3.80;47.40;;;2.17;51.05;102260.91;12260260;19;20565;-82
2023/03/02 01:21:02;;;;;;;;;;;4.10;47.60;;;2.19;50.89;102263.50;12263764;19;19919;-82
2023/03/02 01:25:04;;;;;;;;;;;3.80;47.50;;;2.11;50.82;102255.75;12263990;19;19966;-82
2023/03/02 01:29:06;;;;;;;;;;;3.80;47.50;;;2.14;50.97;102262.63;12263203;19;19922;-82
2023/03/02 01:33:08;;;;;;;;;;;3.90;47.50;;;2.09;50.98;102248.84;12261677;19;19917;-82
2023/03/02 01:37:09;;;;;;;;;;;3.70;47.40;;;1.89;50.91;102220.41;12256481;19;19915;-83
2023/03/02 01:46:33;;;;;;;;;;;3.70;47.40;;;1.91;51.02;102242.75;12258298;19;19927;-82
2023/03/02 01:50:35;;;;;;;;;;;3.60;47.50;;;1.93;50.89;102247.91;12259015;19;19930;-82
2023/03/02 01:54:40;;;;;;;;;;;3.60;47.50;;;1.74;51.02;102211.75;12256058;19;19918;-82
2023/03/02 01:58:43;;;;;;;;;;;3.70;47.50;;;1.84;51.03;102229.84;12252141;19;19939;-82
2023/03/02 02:02:45;;;;;;;;;;;3.50;47.50;;;1.86;51.00;102226.41;12255390;19;19923;-82
2023/03/02 02:06:52;;;;;;;;;;;3.50;47.50;;;1.76;51.14;102216.94;12255096;19;19915;-82
2023/03/02 02:10:54;;;;;;;;;;;3.50;47.50;;;1.83;51.16;102215.25;12256262;19;19942;-82
2023/03/02 02:14:59;;;;;;;;;;;3.60;47.60;;;1.71;51.21;102190.28;12254499;19;19923;-82
2023/03/02 02:19:02;;;;;;;;;;;3.50;47.60;;;1.75;51.00;102199.75;12251351;19;19947;-82
2023/03/02 02:23:07;;;;;;;;;;;3.50;47.60;;;1.83;51.05;102216.09;12251989;19;20361;-82
2023/03/02 02:27:09;;;;;;;;;;;3.40;47.50;;;1.72;51.07;102203.16;12253103;19;20344;-82
2023/03/02 02:31:41;;;;;;;;;;;3.50;47.50;;;1.66;50.96;102192.84;12254306;19;20692;-82
2023/03/02 02:35:45;;;;;;;;;;;3.50;47.50;;;1.77;51.11;102206.63;12249963;19;19927;-82
2023/03/02 02:39:48;;;;;;;;;;;3.70;47.60;;;1.76;51.07;102202.34;12254143;19;19935;-82
2023/03/02 02:43:50;;;;;;;;;;;3.40;47.50;;;1.64;51.24;102197.09;12254799;19;20418;-82
2023/03/02 02:47:54;;;;;;;;;;;3.50;47.60;;;1.68;50.98;102205.72;12251830;19;19915;-82
2023/03/02 02:51:57;;;;;;;;;;;3.40;47.50;;;1.28;51.05;102149.72;12253989;19;19918;-82
2023/03/02 02:55:59;;;;;;;;;;;3.30;47.50;;;1.49;51.17;102184.16;12248717;19;20314;-82
2023/03/02 03:00:01;;;;;;;;;;;3.30;47.50;;;1.55;51.18;102207.38;12251435;19;19919;-82
2023/03/02 03:04:05;;;;;;;;;;;3.30;47.50;;;1.39;51.21;102183.25;12252531;19;19923;-82
2023/03/02 03:08:09;;;;;;;;;;;3.20;47.50;;;1.49;51.23;102202.19;12249206;19;19907;-82
2023/03/02 03:12:19;;;;;;;;;;;3.20;47.50;;;1.44;51.13;102198.72;12250924;19;19934;-82
2023/03/02 03:16:22;;;;;;;;;;;3.20;47.60;;;1.37;51.10;102181.50;12248264;19;19919;-82
2023/03/02 03:20:25;;;;;;;;;;;3.20;47.60;;;1.46;51.14;102194.41;12251463;19;19911;-82
2023/03/02 03:24:30;;;;;;;;;;;3.20;47.50;;;1.45;51.26;102193.56;12252242;19;19923;-82
2023/03/02 03:28:32;;;;;;;;;;;3.20;47.50;;;1.42;51.23;102185.84;12248688;19;19915;-82
2023/03/02 03:32:34;;;;;;;;;;;3.10;47.50;;;1.35;51.10;102196.06;12252510;19;19911;-82
2023/03/02 03:36:37;;;;;;;;;;;3.10;47.50;;;1.38;51.29;102196.09;12247391;19;19915;-81
2023/03/02 03:40:39;;;;;;;;;;;3.00;47.50;;;1.21;51.31;102183.97;12251489;19;19937;-82
2023/03/02 03:44:40;;;;;;;;;;;3.00;47.50;;;1.26;51.37;102184.88;12252144;19;19922;-82
2023/03/02 03:48:43;;;;;;;;;;;3.00;47.60;;;1.23;51.22;102184.00;12247830;19;19967;-82
2023/03/02 03:52:44;;;;;;;;;;;3.20;47.60;;;1.23;51.19;102178.84;12249789;19;19911;-82
2023/03/02 03:56:54;;;;;;;;;;;3.00;47.60;;;1.16;51.27;102167.66;12249974;19;19915;-82
2023/03/02 04:00:56;;;;;;;;;;;3.30;47.70;;;1.26;51.10;102192.59;12249575;19;19927;-82
2023/03/02 04:05:05;;;;;;;;;;;3.30;47.70;;;1.09;51.21;102158.16;12249081;19;20381;-82
2023/03/02 04:09:07;;;;;;;;;;;3.00;47.60;;;1.13;51.18;102177.91;12249959;19;19914;-82
2023/03/02 04:13:10;;;;;;;;;;;3.20;47.70;;;1.08;51.31;102166.72;12248123;19;20330;-83
2023/03/02 04:17:12;;;;;;;;;;;2.90;47.90;;;1.13;51.40;102177.91;12248584;19;19935;-83
2023/03/02 04:21:17;;;;;;;;;;;3.20;47.70;;;1.17;51.34;102192.53;12249292;19;19964;-82
2023/03/02 04:25:22;;;;;;;;;;;2.90;47.60;;;0.80;51.28;102125.38;12250264;19;19915;-82
2023/03/02 04:29:26;;;;;;;;;;;2.90;47.60;;;0.83;51.10;102124.53;12250766;19;19922;-82
2023/03/02 04:33:28;;;;;;;;;;;2.90;47.60;;;1.03;51.29;102165.84;12247886;19;19926;-82
2023/03/02 04:37:30;;;;;;;;;;;2.80;47.60;;;1.05;51.29;102177.88;12246626;19;20245;-82
2023/03/02 04:41:32;;;;;;;;;;;3.10;47.70;;;1.02;51.38;102179.53;12248076;19;20436;-82
2023/03/02 04:45:34;;;;;;;;;;;3.00;47.60;;;0.92;51.45;102168.34;12247289;19;19911;-82
2023/03/02 04:49:36;;;;;;;;;;;3.10;47.70;;;1.01;51.30;102190.69;12250603;19;19993;-82
2023/03/02 04:53:37;;;;;;;;;;;2.80;47.60;;;0.65;51.22;102131.25;12249786;19;19915;-81
2023/03/02 04:57:39;;;;;;;;;;;2.80;47.60;;;0.95;51.18;102182.94;12245905;19;20329;-82
2023/03/02 05:01:40;;;;;;;;;;;3.10;47.70;;;1.07;51.27;102201.03;12248409;19;19922;-82
2023/03/02 05:05:41;;;;;;;;;;;2.80;47.60;;;1.01;51.37;102190.69;12251699;19;20329;-82
2023/03/02 05:09:43;;;;;;;;;;;2.80;47.60;;;0.90;51.27;102174.31;12260965;19;19931;-84
2023/03/02 05:13:44;;;;;;;;;;;2.70;47.50;;;0.52;51.46;102114.00;12257624;19;19938;-83
2023/03/02 05:17:46;;;;;;;;;;;2.90;47.60;;;0.90;51.52;102179.47;12254177;19;19915;-83
2023/03/02 05:21:47;;;;;;;;;;;2.60;47.50;;;0.81;51.49;102168.25;12256283;19;19965;-83
2023/03/02 05:25:51;;;;;;;;;;;2.70;47.60;;;0.91;51.55;102191.47;12252435;19;19934;-83
2023/03/02 05:29:53;;;;;;;;;;;2.60;47.60;;;0.72;51.44;102173.28;12252318;19;19915;-84
2023/03/02 05:33:54;;;;;;;;;;;2.60;47.60;;;0.80;51.42;102187.06;12251966;19;19939;-83
2023/03/02 05:37:56;;;;;;;;;;;2.60;47.60;;;0.70;51.32;102169.84;12252702;19;19919;-83
2023/03/02 05:41:58;;;;;;;;;;;2.60;47.60;;;0.80;51.25;102199.94;12255268;19;19915;-83
2023/03/02 05:45:59;;;;;;;;;;;2.60;47.60;;;0.84;51.47;102201.69;12266388;19;19936;-83
2023/03/02 05:50:01;;;;;;;;;;;2.80;47.70;;;0.51;51.45;102149.97;12268929;19;19955;-82
2023/03/02 05:54:02;;;;;;;;;;;2.80;47.70;;;0.41;51.34;102133.63;12264134;19;19928;-83
2023/03/02 05:58:14;;;;;;;;;;;2.60;47.60;;;0.59;51.50;102171.47;12261350;19;19911;-83
2023/03/02 06:02:15;;;;;;;;;;;2.50;47.60;;;0.76;51.36;102200.78;12265332;19;19919;-83
2023/03/02 06:06:17;;;;;;;;;;;2.50;47.60;;;0.69;51.49;102191.28;12260744;19;19933;-84
2023/03/02 06:10:19;;;;;;;;;;;2.50;47.60;;;0.66;51.39;102194.66;12264864;19;20321;-83
2023/03/02 06:14:20;;;;;;;;;;;2.50;47.60;;;0.70;51.38;102216.13;12261950;19;19919;-83
2023/03/02 06:18:22;;;;;;;;;;;2.50;47.70;;;0.71;51.58;102210.16;12260710;19;19927;-83
2023/03/02 06:22:24;;;;;;;;;;;2.50;47.70;;;0.60;51.54;102192.03;12264438;19;20356;-83
2023/03/02 06:26:25;;;;;;;;;;;2.50;47.70;;;0.64;51.65;102203.22;12257547;19;19923;-83
2023/03/02 06:30:27;;;;;;;;;;;2.70;47.80;;;0.68;51.66;102217.84;12263501;19;19915;-83
2023/03/02 06:34:29;;;;;;;;;;;2.50;47.70;;;0.66;51.41;102207.53;12262819;19;20269;-83
2023/03/02 06:38:30;;;;;;;;;;;2.50;47.70;;;0.71;51.51;102210.16;12256514;19;20333;-83
2023/03/02 06:42:32;;;;;;;;;;;2.50;47.70;;;0.48;51.53;102170.50;12262112;19;19911;-83
2023/03/02 06:46:34;;;;;;;;;;;2.50;47.70;;;0.60;51.45;102198.91;12262074;19;19974;-82
2023/03/02 06:50:35;;;;;;;;;;;2.50;47.70;;;0.37;51.61;102162.69;12262881;19;19922;-83
2023/03/02 06:54:37;;;;;;;;;;;2.50;47.80;;;0.58;51.67;102196.31;12261746;19;19923;-82
2023/03/02 06:58:39;;;;;;;;;;;2.50;47.80;;;0.60;51.61;102212.63;12257227;19;19962;-83
2023/03/02 07:02:41;;;;;;;;;;;2.50;47.90;;;0.62;51.66;102210.94;12258439;19;19975;-83
2023/03/02 07:06:43;;;;;;;;;;;2.70;48.00;;;0.78;51.75;102229.91;12254679;19;19927;-82
2023/03/02 07:10:45;;;;;;;;;;;2.50;48.00;;;0.81;51.64;102239.34;12259128;19;20358;-83
2023/03/02 07:14:46;;;;;;;;;;;2.60;48.00;;;0.78;51.76;102217.03;12256282;19;19919;-82
2023/03/02 07:18:48;;;;;;;;;;;2.60;48.10;;;0.52;51.85;102173.13;12257065;19;19923;-83
2023/03/02 07:22:49;;;;;;;;;;;2.60;48.10;;;0.52;51.85;102173.13;12259096;19;20296;-81
2023/03/02 07:26:51;;;;;;;;;;;2.70;48.10;;;0.95;51.76;102231.81;12255483;19;19914;-83
2023/03/02 07:30:53;;;;;;;;;;;2.80;48.20;;;0.87;51.68;102214.59;12262363;19;19919;-83
2023/03/02 07:34:55;;;;;;;;;;;2.80;48.30;;;0.98;52.07;102227.53;12266386;19;19926;-83
2023/03/02 07:38:56;;;;;;;;;;;2.90;48.60;;;0.96;51.76;102208.66;12276260;19;19929;-83
2023/03/02 07:42:58;;;;;;;;;;;2.90;48.60;;;1.17;52.04;102231.13;12276545;19;20249;-83
2023/03/02 07:47:00;;;;;;;;;;;3.00;48.90;;;1.14;51.90;102204.53;12259711;19;19929;-83
2023/03/02 07:51:03;;;;;;;;;;;3.10;49.20;;;1.36;51.86;102226.97;12266489;19;19967;-83
2023/03/02 07:55:04;;;;;;;;;;;3.20;49.70;;;1.16;52.02;102182.22;12262489;19;19918;-83
2023/03/02 07:59:06;;;;;;;;;;;3.20;49.60;;;1.50;52.00;102227.06;12261307;19;19937;-83
2023/03/02 08:03:08;;;;;;;;;;;3.30;51.60;;;1.52;51.96;102220.22;12261240;19;19939;-83
2023/03/02 08:07:09;;;;;;;;;;;3.40;50.00;;;1.59;52.05;102219.38;12255529;19;19932;-84
2023/03/02 08:11:14;;;;;;;;;;;3.80;50.30;;;1.68;52.22;102227.19;12259738;19;19911;-83
2023/03/02 08:15:15;;;;;;;;;;;3.50;50.70;;;1.70;52.20;102220.34;12258284;19;19938;-83
2023/03/02 08:19:18;;;;;;;;;;;3.60;49.50;;;1.66;52.32;102205.72;12263330;19;19914;-84
2023/03/02 08:23:20;;;;;;;;;;;3.80;50.70;;;1.69;52.30;102190.28;12263310;19;19922;-83
2023/03/02 08:27:22;;;;;;;;;;;3.70;50.40;;;1.77;52.51;102198.91;12259465;19;19941;-84
2023/03/02 08:31:24;;;;;;;;;;;3.80;50.20;;;1.66;52.47;102179.97;12260007;19;20278;-85
2023/03/02 08:35:25;;;;;;;;;;;3.80;50.20;;;1.99;52.59;102225.63;12255279;19;19935;-83
2023/03/02 08:39:29;;;;;;;;;;;3.90;50.70;;;2.01;52.58;102217.91;12254077;19;19925;-83
2023/03/02 08:43:31;;;;;;;;;;;3.90;50.20;;;1.91;52.36;102196.38;12252159;19;19913;-83
2023/03/02 08:47:32;;;;;;;;;;;3.90;50.00;;;1.98;52.54;102202.44;12249679;19;19923;-83
2023/03/02 08:51:34;;;;;;;;;;;4.20;49.90;;;1.92;52.62;102184.41;12251911;19;19922;-83
2023/03/02 08:55:36;;;;;;;;;;;4.20;50.50;;;2.11;52.56;102211.09;12250711;19;19921;-83
2023/03/02 08:59:37;;;;;;;;;;;4.10;50.10;;;2.15;52.76;102200.78;12250936;19;20345;-83
2023/03/02 09:03:38;;;;;;;;;;;4.00;50.80;;;2.19;52.70;102192.22;12252927;19;19978;-83
2023/03/02 09:07:40;;;;;;;;;;;4.10;51.90;;;2.27;52.53;102193.94;12248132;19;19925;-83
2023/03/02 09:11:42;;;;;;;;;;;4.10;53.30;;;2.18;52.61;102174.16;12252291;19;19915;-83
2023/03/02 09:15:43;;;;;;;;;;;4.20;54.80;;;2.32;52.84;102184.50;12248746;19;20293;-83
2023/03/02 09:19:45;;;;;;;;;;;4.20;52.90;;;2.45;52.86;102209.44;12259241;19;19919;-83
2023/03/02 09:23:46;;;;;;;;;;;4.20;52.20;;;2.50;52.67;102196.59;12261068;19;19940;-83
2023/03/02 09:27:48;;;;;;;;;;;4.20;52.10;;;2.42;52.70;102171.63;12258291;19;19948;-84
2023/03/02 09:31:49;;;;;;;;;;;4.30;51.50;;;2.50;52.72;102181.97;12263549;19;19930;-83
2023/03/02 09:35:51;;;;;;;;;;;4.40;51.10;;;2.48;52.81;102188.84;12255145;19;20419;-83
2023/03/02 09:39:52;;;;;;;;;;;4.70;50.90;;;2.51;52.89;102188.88;12260516;19;20295;-83
2023/03/02 09:44:23;;;;;;;;;;;4.40;51.20;;;2.47;52.95;102158.75;12258370;19;19915;-82
2023/03/02 09:48:36;;;;;;;;;;;4.40;50.80;;;2.59;52.80;102184.56;12254915;19;20361;-83
2023/03/02 09:52:54;;;;;;;;;;;4.40;50.60;;;2.45;53.04;102163.06;12257276;19;19922;-83
2023/03/02 09:56:58;;;;;;;;;;;4.50;51.10;;;2.58;52.94;102174.25;12254194;19;19915;-83
2023/03/02 10:01:03;;;;;;;;;;;4.40;52.00;;;2.66;53.09;102183.72;12256976;19;20310;-83
2023/03/02 10:05:11;;;;;;;;;;;4.40;51.80;;;2.43;52.98;102157.91;12256659;19;19915;-83
2023/03/02 10:09:14;;;;;;;;;;;4.50;51.30;;;2.73;52.84;102194.03;12255919;19;19923;-84
2023/03/02 10:13:35;;;;;;;;;;;4.60;51.90;;;2.86;52.94;102193.16;12257279;19;19934;-84
2023/03/02 10:17:39;;;;;;;;;;;4.60;51.70;;;2.90;53.01;102201.78;12262694;19;19951;-84
2023/03/02 10:21:48;;;;;;;;;;;4.60;52.20;;;2.95;52.98;102195.78;12264874;19;19936;-84
2023/03/02 10:25:59;;;;;;;;;;;4.70;51.70;;;2.93;52.99;102176.84;12267336;19;19915;-84
2023/03/02 10:30:17;;;;;;;;;;;4.70;51.70;;;3.08;52.97;102191.47;12263974;19;19930;-83
2023/03/02 10:34:19;;;;;;;;;;;4.80;51.20;;;3.13;53.10;102192.31;12265205;19;19911;-86
2023/03/02 10:38:23;;;;;;;;;;;4.90;51.60;;;3.14;53.00;102191.47;12255553;19;19915;-86
2023/03/02 10:42:32;;;;;;;;;;;4.90;51.40;;;3.13;53.06;102188.88;12259421;19;19911;-85
2023/03/02 10:46:39;;;;;;;;;;;5.00;51.70;;;2.89;52.90;102144.19;12259321;19;19927;-85
2023/03/02 10:50:42;;;;;;;;;;;5.00;52.00;;;3.07;53.25;102167.38;12263978;19;20274;-85
2023/03/02 10:54:43;;;;;;;;;;;4.90;51.30;;;3.14;53.29;102188.03;12265138;19;19934;-85
2023/03/02 10:58:45;;;;;;;;;;;5.00;50.80;;;3.03;53.18;102151.91;12258515;19;19922;-85
2023/03/02 11:02:53;;;;;;;;;;;5.00;50.80;;;3.20;53.23;102188.88;12260663;19;20335;-85
2023/03/02 11:06:54;;;;;;;;;;;5.00;51.60;;;3.06;53.04;102163.09;12258664;19;20002;-85
2023/03/02 11:11:02;;;;;;;;;;;5.00;51.00;;;3.15;53.34;102172.53;12257868;19;19927;-85
2023/03/02 11:15:15;;;;;;;;;;;5.00;50.90;;;3.26;53.41;102167.34;12257527;19;20323;-86
2023/03/02 11:19:25;;;;;;;;;;;5.00;51.10;;;3.28;53.18;102160.47;12258167;19;19943;-85
2023/03/02 11:23:30;;;;;;;;;;;5.40;50.80;;;3.39;53.39;102165.63;12254928;19;19938;-85
2023/03/02 11:27:35;;;;;;;;;;;5.10;51.40;;;3.06;53.35;102088.25;12254707;19;19937;-86
2023/03/02 11:31:43;;;;;;;;;;;5.20;52.40;;;3.46;53.26;102147.53;12251885;19;19990;-85
2023/03/02 11:35:59;;;;;;;;;;;5.20;51.80;;;3.55;53.46;102144.06;12249043;19;19925;-84
2023/03/02 11:40:12;;;;;;;;;;;5.30;51.40;;;3.68;53.33;102155.22;12248578;19;19915;-85
2023/03/02 11:44:19;;;;;;;;;;;5.40;51.60;;;3.76;53.36;102150.88;12252092;19;20283;-85
2023/03/02 11:48:30;;;;;;;;;;;5.50;51.40;;;3.71;53.40;102137.13;12249081;19;20329;-85
2023/03/02 11:52:36;;;;;;;;;;;5.50;51.30;;;3.84;53.23;102143.94;12251136;19;19930;-85
2023/03/02 11:56:38;;;;;;;;;;;5.60;51.70;;;3.83;53.47;102131.88;12247686;19;19926;-85
2023/03/02 12:00:41;;;;;;;;;;;5.70;51.60;;;4.01;53.41;102150.75;12253181;19;19911;-85
2023/03/02 12:04:43;;;;;;;;;;;5.70;51.10;;;3.91;53.16;102114.59;12254161;19;19943;-86
2023/03/02 12:08:46;;;;;;;;;;;5.80;51.10;;;4.13;53.57;102140.34;12247807;19;19907;-86
2023/03/02 12:12:57;;;;;;;;;;;6.00;51.10;;;4.14;53.51;102124.84;12250450;19;19922;-86
2023/03/02 12:17:18;;;;;;;;;;;5.90;51.10;;;4.22;53.66;102111.88;12245189;19;19942;-87
2023/03/02 12:21:21;;;;;;;;;;;6.00;51.30;;;4.27;53.41;102112.69;12251488;19;19924;-85
2023/03/02 12:25:26;;;;;;;;;;;6.10;51.60;;;4.18;53.39;102066.22;12239677;19;19928;-85
2023/03/02 12:29:57;;;;;;;;;;;6.20;51.50;;;4.25;53.32;102062.72;12246077;19;19922;-85
2023/03/02 12:33:59;;;;;;;;;;;6.30;51.30;;;4.55;53.50;102108.16;12246430;19;20329;-85
2023/03/02 12:38:17;;;;;;;;;;;6.30;50.90;;;4.29;53.35;102048.88;12246317;19;19995;-85
2023/03/02 12:42:24;;;;;;;;;;;6.50;50.90;;;4.66;53.66;102089.97;12248714;19;19926;-85
2023/03/02 12:46:33;;;;;;;;;;;6.40;51.50;;;4.73;53.49;102090.78;12251233;19;20360;-85
2023/03/02 12:50:36;;;;;;;;;;;6.50;51.20;;;4.82;53.46;102083.78;12249959;19;20364;-86
2023/03/02 12:54:41;;;;;;;;;;;6.60;51.20;;;4.90;53.57;102090.63;12247475;19;20207;-85
2023/03/02 12:58:48;;;;;;;;;;;6.80;51.30;;;4.86;53.52;102074.25;12253806;19;19911;-85
2023/03/02 13:02:52;;;;;;;;;;;6.70;51.30;;;4.91;53.37;102071.63;12254140;19;19946;-86
2023/03/02 13:06:53;;;;;;;;;;;6.70;51.20;;;4.71;53.43;102026.09;12252970;19;19943;-85
2023/03/02 13:11:00;;;;;;;;;;;7.00;51.60;;;5.00;53.35;102063.78;12254183;19;19922;-85
2023/03/02 13:15:02;;;;;;;;;;;6.70;51.70;;;4.98;53.42;102053.44;12246941;19;19923;-85
2023/03/02 13:19:11;;;;;;;;;;;6.80;51.20;;;5.02;53.46;102046.50;12251806;19;19963;-85
2023/03/02 13:23:13;;;;;;;;;;;6.80;51.40;;;5.08;53.59;102046.44;12248049;19;19922;-87
2023/03/02 13:27:20;;;;;;;;;;;6.90;51.20;;;5.07;53.54;102036.94;12247228;19;20341;-85
2023/03/02 13:31:23;;;;;;;;;;;7.10;51.50;;;5.28;53.45;102048.78;12240108;19;19950;-85
2023/03/02 13:35:27;;;;;;;;;;;7.00;51.50;;;5.19;53.61;102031.63;12245117;19;19953;-85
2023/03/02 13:39:30;;;;;;;;;;;7.10;51.80;;;5.39;53.44;102046.06;12246853;19;19952;-87
2023/03/02 13:43:36;;;;;;;;;;;7.10;51.40;;;5.48;53.44;102052.00;12246830;19;19928;-86
2023/03/02 13:47:42;;;;;;;;;;;7.30;52.10;;;5.49;53.47;102032.13;12237738;19;19982;-85
2023/03/02 13:51:47;;;;;;;;;;;7.20;51.90;;;5.55;53.58;102025.13;12250727;19;19923;-86
2023/03/02 13:55:49;;;;;;;;;;;7.30;51.30;;;5.48;53.47;102000.19;12248820;19;19983;-85
2023/03/02 13:59:51;;;;;;;;;;;7.30;51.80;;;5.65;53.37;102031.06;12249040;19;19921;-85
2023/03/02 14:03:52;;;;;;;;;;;7.30;52.30;;;5.45;53.44;101989.84;12254147;19;19922;-86
2023/03/02 14:07:54;;;;;;;;;;;7.40;51.70;;;5.46;53.56;101981.22;12255347;19;19930;-86
2023/03/02 14:11:56;;;;;;;;;;;7.40;51.40;;;5.68;53.50;102020.63;12262195;19;19939;-87
2023/03/02 14:15:58;;;;;;;;;;;7.40;51.10;;;5.61;53.28;101998.28;12255812;19;19923;-86
2023/03/02 14:20:00;;;;;;;;;;;7.60;51.70;;;5.62;53.35;102012.97;12257806;19;20613;-86
2023/03/02 14:24:02;;;;;;;;;;;7.40;51.00;;;5.53;53.58;101995.78;12264114;19;19974;-86
2023/03/02 14:28:04;;;;;;;;;;;7.30;51.10;;;5.51;53.42;102002.75;12259281;19;19947;-86
2023/03/02 14:32:05;;;;;;;;;;;7.30;51.00;;;5.31;53.59;101963.28;12268114;19;19922;-86
2023/03/02 14:36:12;;;;;;;;;;;7.30;51.70;;;5.23;53.46;101947.84;12262411;19;19928;-86
2023/03/02 14:40:23;;;;;;;;;;;7.20;51.10;;;5.44;53.54;101974.34;12256775;19;19911;-86
2023/03/02 14:44:24;;;;;;;;;;;7.20;51.20;;;5.20;53.55;101937.53;12264264;19;19922;-86
2023/03/02 14:48:25;;;;;;;;;;;7.20;51.00;;;5.42;53.72;101973.50;12259220;19;20301;-86
2023/03/02 14:52:35;;;;;;;;;;;7.20;51.80;;;5.39;53.58;101973.53;12262655;19;19911;-86
2023/03/02 14:56:37;;;;;;;;;;;7.10;51.80;;;5.33;53.43;101964.13;12259411;19;19915;-86
2023/03/02 15:00:38;;;;;;;;;;;7.10;51.20;;;5.31;53.58;101966.72;12261703;19;19919;-86
2023/03/02 15:04:40;;;;;;;;;;;7.00;51.80;;;5.06;53.39;101932.53;12263579;19;20330;-86
2023/03/02 15:08:41;;;;;;;;;;;7.00;51.90;;;5.08;53.67;101933.38;12258389;19;19919;-86
2023/03/02 15:12:43;;;;;;;;;;;7.20;52.30;;;5.29;53.62;101967.63;12262497;19;19915;-86
2023/03/02 15:16:44;;;;;;;;;;;7.00;51.80;;;5.35;53.39;101977.94;12257085;19;19931;-86
2023/03/02 15:20:46;;;;;;;;;;;7.00;51.40;;;5.33;53.47;101974.50;12261468;19;19933;-86
2023/03/02 15:24:48;;;;;;;;;;;7.00;51.90;;;5.11;53.49;101929.91;12262886;19;19978;-86
2023/03/02 15:28:50;;;;;;;;;;;7.00;51.40;;;5.03;53.42;101927.41;12259842;19;19943;-87
2023/03/02 15:32:53;;;;;;;;;;;6.90;51.30;;;5.18;53.52;101944.44;12261144;19;19917;-86
2023/03/02 15:36:55;;;;;;;;;;;6.90;51.00;;;5.21;53.58;101965.16;12263738;19;20329;-87
2023/03/02 15:40:57;;;;;;;;;;;6.90;51.10;;;5.14;53.48;101944.53;12256556;19;19919;-86
2023/03/02 15:44:58;;;;;;;;;;;6.90;51.10;;;5.17;53.33;101941.91;12258019;19;19995;-86
2023/03/02 15:49:00;;;;;;;;;;;6.90;51.10;;;5.15;53.23;101954.84;12256673;19;19943;-86
2023/03/02 15:53:01;;;;;;;;;;;6.90;51.00;;;5.03;53.52;101942.94;12257596;19;19930;-87
2023/03/02 15:57:03;;;;;;;;;;;6.90;50.90;;;4.79;53.50;101909.59;12254252;19;19990;-86
2023/03/02 16:01:08;;;;;;;;;;;6.80;50.90;;;5.04;53.38;101952.41;12255188;19;19923;-86
2023/03/02 16:05:10;;;;;;;;;;;6.80;50.90;;;4.99;53.46;101942.97;12255146;19;19947;-86
2023/03/02 16:09:12;;;;;;;;;;;6.70;50.70;;;4.98;53.32;101946.47;12259292;19;19915;-86
2023/03/02 16:13:13;;;;;;;;;;;6.70;50.80;;;4.98;53.48;101947.31;12259053;19;19978;-86
2023/03/02 16:17:17;;;;;;;;;;;6.70;50.90;;;4.74;53.48;101907.06;12256982;19;19911;-87
2023/03/02 16:21:19;;;;;;;;;;;6.70;51.20;;;4.88;53.49;101927.59;12257363;19;20297;-87
2023/03/02 16:25:20;;;;;;;;;;;6.60;51.90;;;4.71;53.59;101909.69;12261471;19;20003;-86
2023/03/02 16:29:23;;;;;;;;;;;6.60;51.40;;;4.78;53.33;101913.91;12259615;19;19962;-86
2023/03/02 16:33:24;;;;;;;;;;;6.60;51.30;;;4.96;53.52;101943.03;12260084;19;19915;-86
2023/03/02 16:37:26;;;;;;;;;;;6.60;51.30;;;4.95;53.35;101939.59;12254780;19;20361;-86
2023/03/02 16:41:27;;;;;;;;;;;6.60;51.20;;;5.01;53.38;101949.00;12258816;19;19923;-87
2023/03/02 16:45:28;;;;;;;;;;;6.60;51.10;;;4.92;53.28;101943.94;12256820;19;19974;-87
2023/03/02 16:49:30;;;;;;;;;;;6.60;51.10;;;4.87;53.25;101946.59;12255333;19;19913;-87
2023/03/02 16:53:31;;;;;;;;;;;6.60;50.70;;;4.84;53.37;101944.88;12255114;19;19911;-87
2023/03/02 16:57:32;;;;;;;;;;;6.60;50.70;;;4.69;53.41;101934.72;12255162;19;20711;-86
2023/03/02 17:01:34;;;;;;;;;;;6.60;51.10;;;4.67;53.36;101933.84;12249970;19;19915;-87
2023/03/02 17:05:36;;;;;;;;;;;6.70;50.80;;;4.45;53.27;101912.53;12249603;19;20304;-86
2023/03/02 17:09:40;;;;;;;;;;;6.40;50.70;;;4.63;53.45;101947.72;12248413;19;19946;-86
2023/03/02 17:13:42;;;;;;;;;;;6.40;51.00;;;4.61;53.70;101958.06;12251308;19;19915;-86
2023/03/02 17:17:43;;;;;;;;;;;6.50;51.00;;;4.55;53.56;101960.72;12248645;19;19970;-86
2023/03/02 17:21:45;;;;;;;;;;;6.30;51.20;;;4.55;53.70;101965.06;12249588;19;19915;-86
2023/03/02 17:25:47;;;;;;;;;;;6.20;52.30;;;4.50;53.64;101964.25;12247936;19;19922;-86
2023/03/02 17:29:49;;;;;;;;;;;6.20;52.10;;;4.41;53.42;101966.03;12252298;19;19918;-86
2023/03/02 17:33:51;;;;;;;;;;;6.30;51.70;;;4.31;53.65;101954.06;12250546;19;19915;-86
2023/03/02 17:37:53;;;;;;;;;;;6.20;51.70;;;4.47;53.70;101988.41;12247221;19;20526;-86
2023/03/02 17:41:55;;;;;;;;;;;6.20;51.80;;;4.25;53.58;101955.88;12264715;19;19918;-86
2023/03/02 17:46:09;;;;;;;;;;;6.00;51.70;;;4.28;53.44;101966.16;12261909;19;19937;-86
2023/03/02 17:50:12;;;;;;;;;;;6.30;51.70;;;4.27;53.49;101962.75;12265161;19;19915;-87
2023/03/02 17:54:13;;;;;;;;;;;5.90;51.40;;;4.10;53.42;101936.16;12265197;19;19925;-86
2023/03/02 17:58:15;;;;;;;;;;;5.90;51.30;;;4.23;53.55;101971.38;12260109;19;19914;-86
2023/03/02 18:02:17;;;;;;;;;;;5.90;51.20;;;4.05;53.48;101943.09;12265659;19;19910;-87
2023/03/02 18:06:19;;;;;;;;;;;5.90;51.30;;;4.27;53.58;101982.56;12265456;19;19919;-86
2023/03/02 18:10:20;;;;;;;;;;;5.90;51.20;;;4.24;53.38;101982.56;12265078;19;20257;-86
2023/03/02 18:14:27;;;;;;;;;;;5.80;51.10;;;4.28;53.53;101989.44;12260477;19;19911;-86
2023/03/02 18:18:28;;;;;;;;;;;6.00;51.10;;;4.07;53.31;101980.97;12259321;19;19982;-86
2023/03/02 18:22:30;;;;;;;;;;;5.80;51.90;;;3.98;53.58;101989.66;12261935;19;19918;-87
2023/03/02 18:26:31;;;;;;;;;;;5.70;51.40;;;4.04;53.35;102001.69;12263170;19;19926;-87
2023/03/02 18:30:33;;;;;;;;;;;5.60;51.50;;;3.93;53.53;101998.31;12259853;19;20379;-87
2023/03/02 18:34:35;;;;;;;;;;;5.60;51.60;;;3.91;53.53;102007.81;12264445;19;19922;-87
2023/03/02 18:38:37;;;;;;;;;;;5.50;51.70;;;3.50;53.43;101952.09;12259190;19;20417;-87
2023/03/02 18:42:38;;;;;;;;;;;5.50;51.50;;;3.82;53.59;102007.88;12262318;19;19915;-87